Time;durP1;ratioP1;P1;durP2;ratioP2;P2;SDS_P1;SDS_P2;PMS_P1;PMS_P2;Temp;Humidity;BMP_temperature;BMP_pressure;BME280_temperature;BME280_humidity;BME280_pressure;Samples;Min_cycle;Max_cycle;Signal;HPM_P1;HPM_P2
2024/01/05 00:00:48;;;;;;;1.00;1.00;;;;;;;1.80;97.01;97533.56;4981129;28;20057;-91
2024/01/05 00:03:14;;;;;;;1.08;1.08;;;;;;;1.80;97.01;97524.78;5015090;28;20085;-91
2024/01/05 00:05:41;;;;;;;1.10;1.10;;;;;;;1.85;96.80;97525.88;5000953;28;20030;-91
2024/01/05 00:08:07;;;;;;;1.10;1.10;;;;;;;1.73;96.85;97515.75;4965045;28;20414;-91
2024/01/05 00:10:32;;;;;;;1.00;1.00;;;;;;;1.67;96.94;97515.44;4995955;28;20043;-91
2024/01/05 00:12:58;;;;;;;1.08;1.08;;;;;;;1.77;97.06;97509.78;5005563;28;20038;-92
2024/01/05 00:15:24;;;;;;;1.00;1.00;;;;;;;1.76;97.09;97494.81;5010966;28;20034;-90
2024/01/05 00:17:49;;;;;;;1.10;1.10;;;;;;;1.66;97.20;97490.00;5012277;28;20026;-91
2024/01/05 00:20:16;;;;;;;1.00;1.00;;;;;;;1.80;96.93;97498.47;5009821;28;20054;-91
2024/01/05 00:22:43;;;;;;;1.00;1.00;;;;;;;1.69;96.82;97490.16;4998842;28;20051;-89
2024/01/05 00:25:11;;;;;;;1.10;1.10;;;;;;;1.85;96.97;97483.81;5026299;28;20046;-90
2024/01/05 00:27:36;;;;;;;1.10;1.10;;;;;;;1.76;97.11;97476.41;4998934;28;20039;-91
2024/01/05 00:30:04;;;;;;;1.10;1.10;;;;;;;1.70;97.31;97468.28;5015196;28;20368;-92
2024/01/05 00:32:31;;;;;;;1.10;1.10;;;;;;;1.61;96.92;97477.50;5013509;28;20034;-92
2024/01/05 00:34:56;;;;;;;1.10;1.10;;;;;;;1.67;97.15;97469.84;4983266;28;20073;-92
2024/01/05 00:37:22;;;;;;;1.10;1.10;;;;;;;1.68;97.28;97459.44;5011053;28;20069;-92
2024/01/05 00:39:51;;;;;;;1.00;1.00;;;;;;;1.69;97.39;97455.06;4972199;28;20041;-91
2024/01/05 00:42:18;;;;;;;1.10;1.10;;;;;;;1.57;97.27;97444.91;4988743;28;20042;-92
2024/01/05 00:44:48;;;;;;;1.10;1.10;;;;;;;1.59;97.06;97447.63;4971140;28;20061;-92
2024/01/05 00:47:18;;;;;;;1.10;1.10;;;;;;;1.83;97.17;97461.81;4994223;28;20460;-92
2024/01/05 00:49:46;;;;;;;1.10;1.10;;;;;;;1.82;97.19;97452.13;4990819;28;20074;-94
2024/01/05 00:52:19;;;;;;;1.10;1.10;;;;;;;1.88;96.81;97443.59;4990345;28;20460;-92
2024/01/05 00:54:44;;;;;;;1.05;1.05;;;;;;;1.90;96.69;97441.91;5009265;28;20113;-93
2024/01/05 00:57:10;;;;;;;1.00;1.00;;;;;;;1.98;96.74;97446.66;5010896;28;20030;-92
2024/01/05 00:59:36;;;;;;;1.10;1.10;;;;;;;1.97;96.74;97447.50;4997932;28;20551;-92
2024/01/05 01:02:02;;;;;;;1.10;1.10;;;;;;;2.12;96.55;97452.50;5004414;28;20061;-91
2024/01/05 01:04:27;;;;;;;1.10;1.10;;;;;;;2.05;96.49;97450.44;4989207;28;20043;-90
2024/01/05 01:06:55;;;;;;;1.10;1.10;;;;;;;1.85;96.51;97454.88;5007124;28;20042;-92
2024/01/05 01:09:21;;;;;;;1.10;1.10;;;;;;;1.76;96.50;97451.84;4993684;28;20033;-92
2024/01/05 01:11:51;;;;;;;1.05;1.05;;;;;;;1.98;96.57;97462.44;5009471;28;20434;-90
2024/01/05 01:14:18;;;;;;;1.10;1.10;;;;;;;1.88;96.74;97459.38;4993183;28;20089;-90
2024/01/05 01:16:43;;;;;;;1.10;1.10;;;;;;;2.30;96.45;97470.78;5011564;28;20093;-90
2024/01/05 01:19:09;;;;;;;1.10;1.10;;;;;;;2.27;95.81;97482.06;4979416;28;20030;-91
2024/01/05 01:21:36;;;;;;;1.10;1.10;;;;;;;2.23;95.19;97477.50;4998772;28;20576;-91
2024/01/05 01:24:01;;;;;;;1.10;1.10;;;;;;;2.12;95.77;97476.19;4996032;28;20038;-92
2024/01/05 01:26:29;;;;;;;1.02;1.02;;;;;;;2.24;95.83;97478.41;4992934;28;20058;-92
2024/01/05 01:29:26;;;;;;;1.10;1.10;;;;;;;2.12;95.72;97480.56;4963075;28;20050;-92
2024/01/05 01:31:54;;;;;;;1.10;1.10;;;;;;;2.15;95.16;97476.28;4998301;28;20040;-92
2024/01/05 01:34:20;;;;;;;1.10;1.10;;;;;;;2.14;95.71;97478.88;4976666;28;20046;-92
2024/01/05 01:36:47;;;;;;;1.00;1.00;;;;;;;2.10;95.48;97472.56;4977757;28;20034;-92
2024/01/05 01:39:15;;;;;;;1.08;1.08;;;;;;;2.10;95.59;97469.03;4991236;28;20038;-93
2024/01/05 01:41:44;;;;;;;1.10;1.10;;;;;;;2.03;95.59;97470.53;4993244;28;20042;-92
2024/01/05 01:44:13;;;;;;;1.10;1.10;;;;;;;2.19;95.75;97475.59;4985360;28;20026;-92
2024/01/05 01:46:38;;;;;;;1.10;1.10;;;;;;;2.04;95.61;97467.97;4989038;28;20034;-93
2024/01/05 01:49:07;;;;;;;1.10;1.10;;;;;;;1.88;95.83;97462.91;4984327;28;20042;-91
2024/01/05 01:51:34;;;;;;;1.10;1.10;;;;;;;1.91;96.40;97464.75;5006817;28;20090;-91
2024/01/05 01:54:00;;;;;;;1.10;1.10;;;;;;;2.05;96.24;97445.19;4995001;28;20030;-93
2024/01/05 01:56:27;;;;;;;1.10;1.10;;;;;;;1.97;96.34;97444.88;4993832;28;20050;-90
2024/01/05 01:58:52;;;;;;;1.08;1.08;;;;;;;1.96;96.10;97426.38;5010517;28;20042;-92
2024/01/05 02:01:18;;;;;;;1.10;1.10;;;;;;;1.98;95.84;97414.22;4997114;28;20062;-92
2024/01/05 02:03:48;;;;;;;1.10;1.10;;;;;;;2.05;96.04;97417.13;4996794;28;20053;-93
2024/01/05 02:06:14;;;;;;;1.00;1.00;;;;;;;2.11;96.14;97406.00;5008841;28;20027;-91
2024/01/05 02:08:40;;;;;;;1.00;1.00;;;;;;;2.23;95.95;97400.31;5016815;28;20125;-91
2024/01/05 02:11:06;;;;;;;1.10;1.10;;;;;;;2.23;95.67;97385.41;4992534;28;20069;-90
2024/01/05 02:13:33;;;;;;;1.10;1.10;;;;;;;2.20;95.69;97390.53;4996915;28;20392;-91
2024/01/05 02:16:03;;;;;;;1.10;1.10;;;;;;;2.27;95.58;97395.22;4995487;28;20026;-92
2024/01/05 02:18:28;;;;;;;1.10;1.10;;;;;;;2.36;95.25;97365.75;4973836;28;20153;-92
2024/01/05 02:20:59;;;;;;;1.00;1.00;;;;;;;2.26;95.16;97351.34;4970505;28;20037;-92
2024/01/05 02:23:34;;;;;;;1.10;1.10;;;;;;;2.38;95.55;97339.47;4983479;28;20034;-93
2024/01/05 02:26:09;;;;;;;1.00;1.00;;;;;;;2.57;95.08;97361.28;4996327;28;20046;-93
2024/01/05 02:28:38;;;;;;;1.00;1.00;;;;;;;2.62;94.80;97348.31;4981359;28;20050;-93
2024/01/05 02:31:07;;;;;;;1.10;1.10;;;;;;;2.57;94.76;97358.66;5004958;28;20061;-92
2024/01/05 02:33:33;;;;;;;1.10;1.10;;;;;;;2.66;95.11;97363.38;5008704;28;20030;-92
2024/01/05 02:36:23;;;;;;;1.00;1.00;;;;;;;2.69;95.06;97363.50;5004476;28;20044;-92
2024/01/05 02:39:08;;;;;;;1.00;1.00;;;;;;;2.76;95.17;97365.53;5000483;28;20045;-93
2024/01/05 02:41:34;;;;;;;1.00;1.00;;;;;;;2.90;95.05;97367.78;5014776;28;20039;-92
2024/01/05 02:44:01;;;;;;;1.10;1.10;;;;;;;2.91;94.03;97362.56;4998449;28;20053;-92
2024/01/05 02:46:27;;;;;;;1.00;1.00;;;;;;;2.96;93.35;97358.34;4977472;28;20038;-92
2024/01/05 02:48:52;;;;;;;1.00;1.00;;;;;;;3.05;92.99;97355.16;4981482;28;20034;-89
2024/01/05 02:51:18;;;;;;;1.10;1.10;;;;;;;3.03;92.94;97341.94;4993678;28;20038;-91
2024/01/05 02:53:43;;;;;;;1.00;1.00;;;;;;;2.97;93.65;97336.47;4990858;28;20034;-91
2024/01/05 02:56:18;;;;;;;1.00;1.00;;;;;;;3.07;93.58;97342.94;4998312;28;20043;-92
2024/01/05 02:58:44;;;;;;;1.00;1.00;;;;;;;2.97;93.58;97335.53;4999149;28;20110;-91
2024/01/05 03:01:15;;;;;;;1.00;1.00;;;;;;;3.31;92.22;97335.91;5014726;28;20100;-90
2024/01/05 03:03:44;;;;;;;0.93;0.93;;;;;;;3.41;92.04;97331.84;4986645;28;20129;-94
2024/01/05 03:06:17;;;;;;;1.00;1.00;;;;;;;3.25;92.10;97345.31;4999949;28;20717;-92
2024/01/05 03:08:44;;;;;;;1.10;1.10;;;;;;;3.34;90.91;97343.00;5007139;28;20034;-93
2024/01/05 03:11:14;;;;;;;1.00;1.00;;;;;;;3.25;90.97;97338.31;4995643;28;20139;-92
2024/01/05 03:13:42;;;;;;;1.10;1.10;;;;;;;3.25;91.18;97334.78;4993154;28;20069;-91
2024/01/05 03:16:08;;;;;;;1.00;1.00;;;;;;;3.26;91.41;97333.97;4991681;28;20038;-91
2024/01/05 03:18:35;;;;;;;1.00;1.00;;;;;;;3.11;91.33;97336.91;4978302;28;20129;-92
2024/01/05 03:21:02;;;;;;;1.10;1.10;;;;;;;3.04;91.26;97322.66;4962550;28;20046;-94
2024/01/05 03:23:31;;;;;;;1.00;1.00;;;;;;;2.84;91.96;97318.41;4995298;28;20042;-92
2024/01/05 03:26:23;;;;;;;1.00;1.00;;;;;;;2.82;92.38;97326.22;5001663;28;20622;-91
2024/01/05 03:28:52;;;;;;;1.10;1.10;;;;;;;2.99;92.28;97339.13;4994835;28;20824;-92
2024/01/05 03:31:19;;;;;;;1.10;1.10;;;;;;;2.88;92.46;97341.38;4999240;28;20045;-91
2024/01/05 03:33:46;;;;;;;0.95;0.95;;;;;;;2.72;92.72;97334.63;4980731;28;20452;-92
2024/01/05 03:36:12;;;;;;;1.00;1.00;;;;;;;2.58;92.79;97331.50;4994465;28;20049;-93
2024/01/05 03:38:38;;;;;;;1.00;1.00;;;;;;;2.50;93.65;97322.44;4977542;28;20026;-91
2024/01/05 03:41:03;;;;;;;1.00;1.00;;;;;;;2.46;93.80;97325.78;5007288;28;20045;-92
2024/01/05 03:43:29;;;;;;;1.00;1.00;;;;;;;2.34;93.71;97322.66;4992482;28;20034;-91
2024/01/05 03:45:54;;;;;;;1.02;1.02;;;;;;;2.20;93.63;97316.88;4976733;28;20034;-93
2024/01/05 03:48:20;;;;;;;1.02;1.02;;;;;;;2.11;94.14;97311.28;4975826;28;20036;-92
2024/01/05 03:50:46;;;;;;;1.00;1.00;;;;;;;2.04;94.34;97309.25;4991700;28;20038;-93
2024/01/05 03:53:29;;;;;;;1.00;1.00;;;;;;;2.19;94.36;97307.19;4994946;28;20300;-92
2024/01/05 03:56:04;;;;;;;1.10;1.10;;;;;;;2.24;94.23;97297.75;4963193;28;20520;-93
2024/01/05 03:58:31;;;;;;;1.00;1.00;;;;;;;2.25;94.19;97298.63;4994744;28;20109;-92
2024/01/05 04:00:58;;;;;;;1.10;1.10;;;;;;;2.16;94.37;97291.31;4994431;28;20054;-92
2024/01/05 04:03:23;;;;;;;1.00;1.00;;;;;;;2.07;94.30;97288.31;4985263;28;20034;-90
2024/01/05 04:05:49;;;;;;;1.00;1.00;;;;;;;1.94;94.02;97291.31;4976896;28;20046;-91
2024/01/05 04:08:15;;;;;;;1.10;1.10;;;;;;;1.72;94.79;97300.06;4992378;28;20050;-90
2024/01/05 04:10:41;;;;;;;1.10;1.10;;;;;;;1.78;94.76;97297.72;4976453;28;20065;-90
2024/01/05 04:13:08;;;;;;;1.00;1.00;;;;;;;1.76;94.68;97305.50;4994955;28;20469;-91
2024/01/05 04:15:38;;;;;;;1.10;1.10;;;;;;;1.66;95.35;97312.97;5003786;28;20023;-90
2024/01/05 04:18:04;;;;;;;1.02;1.02;;;;;;;1.82;95.48;97310.16;5008667;28;20042;-91
2024/01/05 04:20:30;;;;;;;1.10;1.10;;;;;;;1.79;95.49;97310.91;4978265;28;20561;-91
2024/01/05 04:22:56;;;;;;;1.10;1.10;;;;;;;1.71;95.65;97296.53;4979849;28;20066;-91
2024/01/05 04:25:22;;;;;;;1.10;1.10;;;;;;;1.69;96.01;97292.97;4996827;28;20034;-92
2024/01/05 04:27:48;;;;;;;1.10;1.10;;;;;;;1.64;95.71;97289.25;4991344;28;20048;-91
2024/01/05 04:30:15;;;;;;;1.10;1.10;;;;;;;1.51;95.65;97292.22;4980718;28;20034;-90
2024/01/05 04:32:43;;;;;;;1.10;1.10;;;;;;;1.55;96.09;97291.50;5009156;28;20397;-92
2024/01/05 04:35:13;;;;;;;1.00;1.00;;;;;;;1.60;95.54;97284.72;5010734;28;20030;-91
2024/01/05 04:37:39;;;;;;;1.10;1.10;;;;;;;1.64;95.86;97289.25;4992767;28;20503;-90
2024/01/05 04:40:06;;;;;;;1.10;1.10;;;;;;;1.66;95.64;97284.94;4995025;28;20121;-93
2024/01/05 04:42:46;;;;;;;0.90;0.90;;;;;;;1.70;96.06;97297.38;4977820;28;20042;-91
2024/01/05 04:45:16;;;;;;;1.10;1.10;;;;;;;1.83;95.81;97283.00;4998626;28;20099;-91
2024/01/05 04:47:46;;;;;;;1.00;1.00;;;;;;;1.95;95.98;97287.84;5002353;28;20050;-91
2024/01/05 04:50:11;;;;;;;1.00;1.00;;;;;;;2.03;96.31;97286.41;5006150;28;20057;-92
2024/01/05 04:52:38;;;;;;;1.10;1.10;;;;;;;2.12;95.69;97281.50;5009356;28;20074;-92
2024/01/05 04:55:04;;;;;;;;;;;;;;;2.17;95.84;97273.78;5005408;28;20061;-91
2024/01/05 04:57:30;;;;;;;1.10;1.10;;;;;;;2.11;95.54;97271.84;4991391;28;19917;-91
2024/01/05 04:59:56;;;;;;;1.00;1.00;;;;;;;2.02;95.85;97268.84;5005048;28;20042;-92
2024/01/05 05:02:23;;;;;;;1.00;1.00;;;;;;;2.05;95.71;97263.69;5007555;28;20039;-92
2024/01/05 05:04:49;;;;;;;1.05;1.05;;;;;;;2.09;95.69;97260.34;5017762;28;20065;-91
2024/01/05 05:07:14;;;;;;;1.00;1.00;;;;;;;2.26;95.34;97250.47;5004868;28;20062;-93
2024/01/05 05:09:40;;;;;;;1.00;1.00;;;;;;;2.20;94.71;97245.84;5015355;28;20050;-91
2024/01/05 05:12:06;;;;;;;1.10;1.10;;;;;;;2.25;94.54;97254.84;4998020;28;20101;-90
2024/01/05 05:14:32;;;;;;;1.00;1.00;;;;;;;2.28;94.29;97248.78;4997239;28;20041;-91
2024/01/05 05:16:59;;;;;;;1.02;1.02;;;;;;;2.11;93.92;97261.31;5022328;28;20102;-94
2024/01/05 05:19:26;;;;;;;1.10;1.10;;;;;;;2.01;93.94;97253.88;4981979;28;20481;-91
2024/01/05 05:21:52;;;;;;;1.10;1.10;;;;;;;1.80;94.51;97249.59;4982295;28;20042;-92
2024/01/05 05:24:17;;;;;;;1.08;1.08;;;;;;;1.63;94.86;97253.31;4989770;28;20069;-92
2024/01/05 05:26:43;;;;;;;1.10;1.10;;;;;;;1.45;95.10;97253.44;4992505;28;20026;-92
2024/01/05 05:29:08;;;;;;;1.10;1.10;;;;;;;1.49;95.23;97265.00;4977256;28;20140;-90
2024/01/05 05:31:34;;;;;;;1.10;1.10;;;;;;;1.58;95.34;97267.97;5014056;28;20041;-92
2024/01/05 05:34:00;;;;;;;1.10;1.10;;;;;;;1.52;95.32;97263.38;4990322;28;20026;-90
2024/01/05 05:36:27;;;;;;;1.10;1.10;;;;;;;1.59;95.38;97263.63;5016107;28;20046;-91
2024/01/05 05:38:52;;;;;;;1.08;1.08;;;;;;;1.66;95.37;97263.03;4980645;28;20050;-92
2024/01/05 05:41:19;;;;;;;1.10;1.10;;;;;;;1.54;95.04;97266.06;4994978;28;20553;-93
2024/01/05 05:43:47;;;;;;;1.10;1.10;;;;;;;1.37;95.58;97261.84;4998775;28;20049;-92
2024/01/05 05:46:13;;;;;;;1.10;1.10;;;;;;;1.24;95.77;97253.44;4967393;28;20046;-92
2024/01/05 05:48:39;;;;;;;1.10;1.10;;;;;;;1.01;95.92;97263.03;4985302;28;20030;-92
2024/01/05 05:51:06;;;;;;;1.10;1.10;;;;;;;0.92;96.26;97265.25;4995280;28;20188;-93
2024/01/05 05:53:44;;;;;;;1.00;1.00;;;;;;;0.97;95.74;97261.09;4987502;28;20039;-92
2024/01/05 05:56:12;;;;;;;1.10;1.10;;;;;;;0.85;96.31;97262.28;4991088;28;20543;-92
2024/01/05 05:58:39;;;;;;;1.02;1.02;;;;;;;0.73;96.52;97262.69;4985113;28;20060;-92
2024/01/05 06:01:06;;;;;;;1.00;1.00;;;;;;;0.84;97.36;97256.16;5002847;28;20030;-93
2024/01/05 06:03:35;;;;;;;1.10;1.10;;;;;;;0.67;97.01;97255.44;5014014;28;20357;-93
2024/01/05 06:06:01;;;;;;;1.10;1.10;;;;;;;0.65;96.84;97251.84;5018172;28;20048;-92
2024/01/05 06:08:27;;;;;;;1.10;1.10;;;;;;;0.77;97.38;97255.00;5000653;28;20041;-92
2024/01/05 06:10:52;;;;;;;1.10;1.10;;;;;;;0.80;97.88;97254.22;4993582;28;20567;-93
2024/01/05 06:13:19;;;;;;;1.10;1.10;;;;;;;0.86;97.90;97253.56;5009056;28;20034;-93
2024/01/05 06:15:47;;;;;;;0.98;0.98;;;;;;;0.88;97.56;97252.81;5005823;28;20054;-92
2024/01/05 06:18:14;;;;;;;1.10;1.10;;;;;;;1.03;97.65;97252.56;4990926;28;20041;-92
2024/01/05 06:20:40;;;;;;;1.10;1.10;;;;;;;1.05;97.34;97258.78;5002241;28;20112;-92
2024/01/05 06:23:05;;;;;;;1.10;1.10;;;;;;;1.15;97.30;97255.72;4987104;28;20034;-92
2024/01/05 06:25:31;;;;;;;1.10;1.10;;;;;;;1.28;97.22;97260.63;4997347;28;20032;-93
2024/01/05 06:27:56;;;;;;;1.10;1.10;;;;;;;1.21;96.97;97255.97;5013247;28;20033;-91
2024/01/05 06:30:38;;;;;;;1.10;1.10;;;;;;;1.23;96.86;97262.19;5013075;28;20018;-92
2024/01/05 06:33:06;;;;;;;1.02;1.02;;;;;;;1.15;97.04;97273.19;5013722;28;20034;-93
2024/01/05 06:35:54;;;;;;;1.05;1.05;;;;;;;1.27;97.04;97278.97;5018733;28;20022;-91
2024/01/05 06:38:33;;;;;;;0.95;0.95;;;;;;;1.22;96.92;97284.03;5014663;28;20054;-93
2024/01/05 06:41:20;;;;;;;1.08;1.08;;;;;;;1.25;96.40;97288.53;5020809;28;20069;-93
2024/01/05 06:43:46;;;;;;;1.10;1.10;;;;;;;1.21;96.56;97283.97;5004589;28;20443;-92
2024/01/05 06:46:13;;;;;;;1.10;1.10;;;;;;;1.09;96.69;97286.06;4990919;28;20068;-91
2024/01/05 06:48:38;;;;;;;1.10;1.10;;;;;;;1.08;96.87;97279.03;5007190;28;20038;-93
2024/01/05 06:51:04;;;;;;;1.10;1.10;;;;;;;1.00;97.14;97276.06;4988787;28;20417;-93
2024/01/05 06:53:32;;;;;;;1.10;1.10;;;;;;;1.08;97.32;97272.03;5022525;28;20030;-92
2024/01/05 06:56:00;;;;;;;1.10;1.10;;;;;;;1.12;96.95;97271.34;5001877;28;20042;-93
2024/01/05 06:58:34;;;;;;;1.10;1.10;;;;;;;1.21;96.81;97271.75;5010876;28;20034;-93
2024/01/05 07:03:35;;;;;;;1.08;1.08;;;;;;;1.18;96.49;97271.59;5087352;23;20039;-92
2024/01/05 07:43:49;;;;;;;1.10;1.10;;;;;;;0.96;96.37;97277.69;5742942;23;20139;-94
2024/01/05 07:46:16;;;;;;;1.10;1.10;;;;;;;1.08;96.04;97277.31;4988567;28;20098;-95
2024/01/05 07:48:44;;;;;;;1.00;1.00;;;;;;;1.07;95.99;97270.25;4989649;28;20038;-95
2024/01/05 07:51:13;;;;;;;1.10;1.10;;;;;;;1.04;96.07;97278.00;5002312;28;20046;-96
2024/01/05 07:53:39;;;;;;;1.10;1.10;;;;;;;1.00;96.02;97268.19;5001546;28;20043;-96
2024/01/05 07:56:08;;;;;;;1.10;1.10;;;;;;;1.14;96.33;97280.19;5011558;28;20027;-96
2024/01/05 07:58:40;;;;;;;1.10;1.10;;;;;;;1.27;96.43;97269.34;5023691;23;20050;-96
2024/01/05 08:01:09;;;;;;;1.10;1.10;;;;;;;1.45;96.15;97276.22;5009683;28;20046;-96
2024/01/05 08:03:59;;;;;;;1.10;1.10;;;;;;;1.54;95.77;97273.97;5018311;28;20061;-96
2024/01/05 08:06:28;;;;;;;1.10;1.10;;;;;;;1.57;95.30;97273.16;5023685;28;20027;-94
2024/01/05 08:08:54;;;;;;;1.10;1.10;;;;;;;1.62;95.07;97271.63;4999205;28;20033;-95
2024/01/05 08:11:21;;;;;;;1.05;1.05;;;;;;;1.65;94.89;97274.38;4995311;28;20058;-95
2024/01/05 08:14:02;;;;;;;1.10;1.10;;;;;;;1.67;94.52;97273.59;5023083;28;20043;-95
2024/01/05 08:16:30;;;;;;;1.10;1.10;;;;;;;1.68;94.50;97264.00;5005613;28;20042;-96
2024/01/05 08:18:57;;;;;;;1.10;1.10;;;;;;;1.81;93.83;97268.88;5016797;28;20524;-94
2024/01/05 08:21:31;;;;;;;1.10;1.10;;;;;;;1.99;94.26;97272.25;5020452;28;20041;-96
2024/01/05 08:23:59;;;;;;;1.00;1.00;;;;;;;2.10;94.22;97272.63;4999155;28;20087;-96
2024/01/05 08:26:27;;;;;;;1.10;1.10;;;;;;;2.17;93.81;97258.91;4990816;28;20069;-93
2024/01/05 08:28:52;;;;;;;1.10;1.10;;;;;;;2.17;92.83;97261.53;5002054;28;20077;-93
2024/01/05 10:32:44;;;;;;;0.80;0.80;;;;;;;6.39;83.08;97265.34;4977513;28;20243;-94
2024/01/05 10:35:24;;;;;;;0.80;0.80;;;;;;;6.42;83.12;97266.31;4979027;28;20160;-94
2024/01/05 10:38:03;;;;;;;0.70;0.70;;;;;;;6.56;83.67;97261.28;4946398;28;20082;-93
2024/01/05 10:40:30;;;;;;;0.80;0.80;;;;;;;6.56;82.92;97268.34;4971148;28;20047;-94
2024/01/05 10:45:44;;;;;;;0.82;0.82;;;;;;;6.90;82.56;97273.50;5152251;23;20043;-94
2024/01/05 10:48:16;;;;;;;0.70;0.70;;;;;;;7.15;82.70;97268.66;4996213;28;20038;-94
2024/01/05 10:51:23;;;;;;;0.80;0.80;;;;;;;7.30;82.02;97268.94;5717851;23;20045;-94
2024/01/05 10:53:52;;;;;;;0.73;0.73;;;;;;;7.45;81.09;97263.00;5709493;22;20021;-91
2024/01/05 11:07:03;;;;;;;0.70;0.70;;;;;;;7.88;79.06;97243.38;4974750;28;20110;-93
2024/01/05 11:09:49;;;;;;;0.70;0.70;;;;;;;8.03;77.98;97241.84;4990046;28;20043;-94
2024/01/05 11:15:22;;;;;;;0.73;0.73;;;;;;;8.25;74.96;97235.09;6004414;23;19916;-96
2024/01/05 11:18:10;;;;;;;0.88;0.88;;;;;;;8.07;74.94;97233.03;4960655;28;20341;-94
2024/01/05 11:21:02;;;;;;;0.70;0.70;;;;;;;8.34;73.71;97232.56;4984620;28;20038;-94
2024/01/05 11:23:32;;;;;;;0.70;0.70;;;;;;;8.53;72.29;97229.31;4991164;28;20120;-94
2024/01/05 11:26:00;;;;;;;0.80;0.80;;;;;;;8.61;71.88;97219.63;4990491;28;20046;-93
2024/01/05 11:28:38;;;;;;;0.70;0.70;;;;;;;8.70;70.37;97213.53;4972227;28;20034;-94
2024/01/05 11:31:11;;;;;;;0.70;0.70;;;;;;;8.84;71.18;97206.63;4972182;28;20047;-93
2024/01/05 11:36:47;;;;;;;0.70;0.70;;;;;;;9.22;69.38;97208.81;5066969;23;20469;-93
2024/01/05 11:39:40;;;;;;;0.70;0.70;;;;;;;9.30;69.65;97214.22;5008811;28;20080;-93
2024/01/05 11:42:07;;;;;;;0.70;0.70;;;;;;;9.33;69.73;97203.56;4991760;28;20053;-95
2024/01/05 11:44:39;;;;;;;0.70;0.70;;;;;;;9.65;68.04;97203.88;4993490;28;20087;-93
2024/01/05 11:47:04;;;;;;;0.70;0.70;;;;;;;9.61;68.47;97202.06;4999250;28;20448;-93
2024/01/05 11:49:39;;;;;;;0.70;0.70;;;;;;;9.48;68.72;97203.69;5003676;28;20034;-93
2024/01/05 11:55:10;;;;;;;0.68;0.68;;;;;;;9.49;69.10;97195.75;5988563;23;21283;-91
2024/01/05 11:57:40;;;;;;;0.60;0.60;;;;;;;9.38;68.56;97192.09;5032819;28;20025;-93
2024/01/05 12:03:01;;;;;;;0.60;0.60;;;;;;;9.65;69.13;97179.91;5693909;23;20039;-94
2024/01/05 12:08:05;;;;;;;0.57;0.57;;;;;;;9.60;69.85;97187.84;4987099;28;20050;-93
2024/01/05 12:10:35;;;;;;;0.60;0.60;;;;;;;9.66;69.84;97181.66;4982376;28;20039;-94
2024/01/05 12:13:01;;;;;;;0.60;0.60;;;;;;;9.68;69.86;97179.94;4994861;28;20033;-92
2024/01/05 12:15:28;;;;;;;0.60;0.60;;;;;;;9.14;69.86;97190.09;4986465;28;20035;-93
2024/01/05 12:18:08;;;;;;;0.60;0.60;;;;;;;9.15;68.68;97186.56;5178376;23;20054;-95
2024/01/05 12:20:57;;;;;;;0.60;0.60;;;;;;;9.41;66.94;97200.09;5912042;23;20051;-93
2024/01/05 12:26:08;;;;;;;0.60;0.60;;;;;;;9.51;68.34;97195.75;5593065;23;20057;-91
2024/01/05 12:34:02;;;;;;;0.60;0.60;;;;;;;9.45;68.98;97196.59;5520107;23;20034;-91
2024/01/05 12:36:34;;;;;;;0.60;0.60;;;;;;;9.52;69.21;97203.75;5225809;22;20019;-91
2024/01/05 12:49:45;;;;;;;0.60;0.60;;;;;;;9.77;68.99;97180.88;5219952;23;20098;-91
2024/01/05 13:11:06;;;;;;;0.60;0.60;;;;;;;10.33;66.73;97136.81;5461787;23;20341;-91
2024/01/05 13:13:35;;;;;;;0.60;0.60;;;;;;;10.46;64.78;97128.00;5315242;23;20021;-89
2024/01/05 13:16:03;;;;;;;0.70;0.70;;;;;;;10.46;65.25;97129.78;4986183;28;20059;-94
2024/01/05 13:18:29;;;;;;;0.70;0.70;;;;;;;10.41;65.69;97135.09;4980398;28;20038;-93
2024/01/05 13:21:10;;;;;;;0.70;0.70;;;;;;;10.22;67.03;97127.84;5059395;23;20101;-93
2024/01/05 13:31:44;;;;;;;0.60;0.60;;;;;;;10.03;66.45;97143.75;5767738;23;20024;-92
2024/01/05 13:39:30;;;;;;;0.70;0.70;;;;;;;9.89;67.00;97145.44;5610040;23;20034;-91
2024/01/05 13:50:06;;;;;;;0.60;0.60;;;;;;;9.82;67.37;97154.28;5565100;23;20103;-92
2024/01/05 13:52:33;;;;;;;0.65;0.65;;;;;;;9.78;67.79;97163.13;4980958;28;20031;-92
2024/01/05 13:55:02;;;;;;;0.57;0.57;;;;;;;9.75;68.06;97176.41;4975689;28;20055;-91
2024/01/05 13:57:28;;;;;;;0.60;0.60;;;;;;;9.57;70.15;97171.84;4935605;28;20031;-91
2024/01/05 14:02:30;;;;;;;0.60;0.60;;;;;;;9.46;71.58;97189.50;5499298;23;20419;-91
2024/01/05 14:04:57;;;;;;;0.60;0.60;;;;;;;9.40;72.19;97186.78;4995993;28;20031;-93
2024/01/05 14:07:25;;;;;;;0.70;0.70;;;;;;;9.34;72.14;97192.03;4978265;28;20021;-92
2024/01/05 14:15:03;;;;;;;0.50;0.50;;;;;;;9.08;72.01;97184.72;5228725;23;20069;-92
2024/01/05 14:17:29;;;;;;;0.60;0.60;;;;;;;8.98;72.53;97189.03;5138262;23;20049;-91
2024/01/05 14:19:54;;;;;;;0.55;0.55;;;;;;;8.82;73.40;97192.44;5002627;28;20054;-94
2024/01/05 14:22:23;;;;;;;0.60;0.60;;;;;;;8.70;73.39;97192.28;4994584;28;20084;-92
2024/01/05 14:24:49;;;;;;;0.60;0.60;;;;;;;8.69;73.79;97190.50;4983795;28;20035;-92
2024/01/05 14:27:16;;;;;;;0.60;0.60;;;;;;;8.67;74.44;97194.88;5003178;28;20040;-93
2024/01/05 14:29:42;;;;;;;0.60;0.60;;;;;;;8.61;74.79;97200.13;5010088;28;20125;-93
2024/01/05 14:32:08;;;;;;;0.70;0.70;;;;;;;8.48;75.83;97207.97;4993948;28;20030;-93
2024/01/05 14:34:33;;;;;;;0.60;0.60;;;;;;;8.63;75.35;97206.38;5015195;28;20041;-92
2024/01/05 14:36:59;;;;;;;0.60;0.60;;;;;;;8.55;75.71;97206.28;4993657;28;20069;-92
2024/01/05 14:39:28;;;;;;;0.60;0.60;;;;;;;8.43;76.29;97211.44;4986911;28;20034;-91
2024/01/05 14:41:54;;;;;;;0.60;0.60;;;;;;;8.48;76.54;97215.94;4986943;28;20136;-92
2024/01/05 14:44:23;;;;;;;0.60;0.60;;;;;;;8.38;76.45;97218.44;4988711;28;20034;-93
2024/01/05 14:46:48;;;;;;;0.70;0.70;;;;;;;8.23;76.07;97216.44;4975969;28;20038;-92
2024/01/05 14:49:15;;;;;;;0.70;0.70;;;;;;;8.27;76.85;97217.38;5000852;28;20157;-93
2024/01/05 14:51:40;;;;;;;0.70;0.70;;;;;;;8.28;77.18;97212.09;4982898;28;20440;-92
2024/01/05 14:54:06;;;;;;;0.70;0.70;;;;;;;8.22;77.34;97217.31;4983700;28;20034;-93
2024/01/05 14:56:36;;;;;;;0.80;0.80;;;;;;;8.17;76.84;97224.34;5001760;28;20145;-93
2024/01/05 14:59:02;;;;;;;0.60;0.60;;;;;;;8.17;76.61;97213.72;5000557;28;20117;-93
2024/01/05 15:01:31;;;;;;;0.68;0.68;;;;;;;8.09;76.89;97215.34;4999405;28;20915;-94
2024/01/05 15:03:57;;;;;;;0.70;0.70;;;;;;;8.06;77.17;97213.56;5001897;28;20051;-92
2024/01/05 15:06:26;;;;;;;0.70;0.70;;;;;;;8.09;78.44;97220.66;5002735;28;20110;-94
2024/01/05 15:08:55;;;;;;;0.60;0.60;;;;;;;8.06;78.73;97213.56;5006837;28;20049;-93
2024/01/05 15:11:20;;;;;;;0.60;0.60;;;;;;;7.99;78.60;97216.97;5012068;28;20038;-92
2024/01/05 15:13:46;;;;;;;0.70;0.70;;;;;;;8.04;78.10;97214.41;5015246;28;20029;-92
2024/01/05 15:16:13;;;;;;;0.65;0.65;;;;;;;7.91;78.92;97211.56;5015639;28;20031;-92
2024/01/05 15:18:39;;;;;;;;;;;;;;;7.91;79.46;97216.00;5006315;28;20014;-92
2024/01/05 15:21:05;;;;;;;0.80;0.80;;;;;;;7.78;79.45;97222.88;5030636;28;19918;-93
2024/01/05 15:23:31;;;;;;;0.70;0.70;;;;;;;7.73;79.24;97219.25;5029818;28;20034;-90
2024/01/05 15:25:58;;;;;;;0.60;0.60;;;;;;;7.56;80.97;97226.03;5003934;28;20018;-93
2024/01/05 15:28:24;;;;;;;0.60;0.60;;;;;;;7.52;80.83;97218.88;5013477;28;20404;-92
2024/01/05 15:30:49;;;;;;;0.70;0.70;;;;;;;7.45;81.26;97224.09;5001221;28;20302;-93
2024/01/05 15:33:17;;;;;;;0.70;0.70;;;;;;;7.45;81.15;97223.22;5004252;28;20030;-93
2024/01/05 15:35:43;;;;;;;;;;;;;;;7.45;80.50;97217.91;5003533;28;20030;-94
2024/01/05 15:38:09;;;;;;;0.70;0.70;;;;;;;7.47;78.60;97216.16;4987603;28;19925;-94
2024/01/05 15:40:38;;;;;;;0.73;0.73;;;;;;;7.59;80.98;97219.03;5008332;28;20050;-94
2024/01/05 15:43:10;;;;;;;0.70;0.70;;;;;;;7.46;81.89;97219.69;5012767;28;20026;-93
2024/01/05 15:45:38;;;;;;;0.70;0.70;;;;;;;7.38;82.23;97216.03;4987834;28;20034;-93
2024/01/05 15:48:06;;;;;;;0.70;0.70;;;;;;;7.25;82.56;97211.38;5001730;28;20507;-93
2024/01/05 15:50:32;;;;;;;0.70;0.70;;;;;;;7.16;83.39;97214.75;4980803;28;20043;-92
2024/01/05 15:52:57;;;;;;;0.73;0.73;;;;;;;7.07;84.16;97211.94;4982728;28;20073;-94
2024/01/05 15:55:24;;;;;;;0.68;0.68;;;;;;;6.94;84.64;97219.63;4975894;28;20134;-93
2024/01/05 15:57:51;;;;;;;0.80;0.80;;;;;;;6.78;85.09;97212.28;4997181;28;20041;-92
2024/01/05 16:00:17;;;;;;;0.70;0.70;;;;;;;6.63;85.14;97218.16;5006885;28;20034;-91
2024/01/05 16:02:47;;;;;;;0.70;0.70;;;;;;;6.71;84.13;97213.03;5013729;28;20061;-92
2024/01/05 16:05:17;;;;;;;0.80;0.80;;;;;;;6.68;83.92;97221.81;4997945;28;20038;-92